LGRPLGSM

Guest
Details From LGRP - Diagoras
To LGSM - Samos
Flight Number -
Tags Routegen Generated
Created
Modified
Stats Distance 104 nm / 193 km
Max Altitude 300 ft / 91 m
Waypoints 12
Social Downloads 19
Likes 0
Share

Download

Looking for another format? Having issues loading an existing format? Contact us
Advertisement - Login to hide

Notes

Departing runway 24 LGRP. Arriving runway 9 LGSM.

Route

LGRP +36.38_+027.98 +36.38_+027.91 +36.40_+027.84 +36.43_+027.79 +36.48_+027.75 +36.94_+027.51 +37.57_+027.17 +37.62_+027.13 +37.66_+027.08 +37.68_+027.01 LGSM

ID Type Via Altitude (ft/m) Position (lat/lon) Dist (leg/tot) Name
O LGRP APT - 0 / 0 36.40034 / 28.06887 - / 0 nm
+36.38_+027.98 LATLON - 300 / 91 36.37555 / 27.98442 4 / 4 nm
+36.38_+027.91 LATLON - 300 / 91 36.37552 / 27.91251 3 / 7 nm
+36.40_+027.84 LATLON - 300 / 91 36.39529 / 27.84492 3 / 11 nm
+36.43_+027.79 LATLON - 300 / 91 36.43248 / 27.78979 3 / 14 nm
+36.48_+027.75 LATLON - 300 / 91 36.48260 / 27.75378 3 / 18 nm
+36.94_+027.51 LATLON - 300 / 91 36.94256 / 27.50506 30 / 48 nm
+37.57_+027.17 LATLON - 300 / 91 37.56736 / 27.16522 40 / 89 nm
+37.62_+027.13 LATLON - 300 / 91 37.61941 / 27.13323 3 / 92 nm
+37.66_+027.08 LATLON - 300 / 91 37.65966 / 27.08068 3 / 96 nm
+37.68_+027.01 LATLON - 300 / 91 37.68325 / 27.01389 3 / 99 nm
O LGSM APT - 0 / 0 37.68837 / 26.92268 4 / 104 nm

Altitude Profile

Advertisement - Login to hide

LGRP

Details ICAO LGRP (RHO)
Name Rhodos Diagoras
Region Greece
Timezone Europe/Athens (UTC+3.0)
Stats Elevation 17 ft / 5 m (AMSL)
Location 36.405400° 28.086200°
Runways 1
Magnetic Variation 5.043° E

METAR

LGRP 260620Z 00000KT 9999 FEW018 25/21 Q1008 NOSIG

Decode

TAF

TAF LGRP 260500Z 2606/2706 25015KT 9999 FEW008 BECMG 2607/2609 17015KT TEMPO 2608/2621 17015G25KT

Decode

Departure Runways

ID Width Length Bearing (true/mag) Surface Threshold Overrun Markings Lighting
07 148 ft / 45 m 10,825 ft / 3,300 m 69.98° / 64.94° ASPHALT 0 ft / 0 m 23 ft / 7 m PREC-APP EDGE THRESHOLD SALS
25 148 ft / 45 m 10,825 ft / 3,300 m 250.00° / 244.96° ASPHALT 0 ft / 0 m 20 ft / 6 m PREC-APP EDGE THRESHOLD ALSF-II

LGSM

Details ICAO LGSM (SMI)
Name SAMOS
Region Greece
Timezone Europe/Athens (UTC+3.0)
Stats Elevation 62 ft / 19 m (AMSL)
Location 37.689100° 26.912800°
Runways 1
Magnetic Variation 5.070° E

METAR

LGSM 260550Z 19007KT 9999 FEW020 23/19 Q1007

Decode

TAF

Not found

Destination Runways

ID Width Length Bearing (true/mag) Surface Threshold Overrun Markings Lighting
09 192 ft / 58 m 6,712 ft / 2,046 m 94.28° / 89.21° ASPHALT 0 ft / 0 m 0 ft / 0 m APP CENTERLINE EDGE THRESHOLD MALSF
27 192 ft / 58 m 6,712 ft / 2,046 m 274.29° / 269.22° ASPHALT 243 ft / 74 m 0 ft / 0 m APP CENTERLINE EDGE THRESHOLD MALSF

Popular Alternatives